Time;durP1;ratioP1;P1;durP2;ratioP2;P2;SDS_P1;SDS_P2;PMS_P1;PMS_P2;Temp;Humidity;BMP_temperature;BMP_pressure;BME280_temperature;BME280_humidity;BME280_pressure;Samples;Min_cycle;Max_cycle;Signal;HPM_P1;HPM_P2
2021/04/11 00:01:12;;;;;;;8.73;3.30;;;5.40;73.90;;;;;;5032860;28;20060;-64
2021/04/11 00:03:38;;;;;;;10.87;3.10;;;5.50;74.30;;;;;;5033520;28;20045;-64
2021/04/11 00:06:03;;;;;;;10.33;3.43;;;5.50;74.50;;;;;;5033401;28;20067;-64
2021/04/11 00:08:29;;;;;;;11.93;4.20;;;5.50;74.60;;;;;;5033194;28;20065;-64
2021/04/11 00:11:00;;;;;;;11.27;3.63;;;5.50;74.80;;;;;;5032944;28;20163;-64
2021/04/11 00:13:27;;;;;;;;;;;5.50;75.00;;;;;;5032727;28;20038;-63
2021/04/11 00:15:53;;;;;;;11.93;4.13;;;5.50;75.40;;;;;;5031757;28;19917;-64
2021/04/11 00:18:19;;;;;;;13.77;4.20;;;5.50;75.60;;;;;;5033083;28;20117;-68
2021/04/11 00:20:45;;;;;;;11.43;4.07;;;5.50;75.90;;;;;;5032097;28;20038;-68
2021/04/11 00:23:11;;;;;;;11.30;4.13;;;5.50;76.30;;;;;;5033133;28;20037;-69
2021/04/11 00:25:39;;;;;;;11.23;5.10;;;5.50;76.60;;;;;;5031420;28;20037;-69
2021/04/11 00:28:07;;;;;;;13.80;5.10;;;5.50;76.80;;;;;;5030723;28;20036;-68
2021/04/11 00:30:33;;;;;;;14.93;5.60;;;5.50;77.10;;;;;;5014360;28;20038;-67
2021/04/11 00:33:01;;;;;;;14.37;5.07;;;5.50;77.50;;;;;;5031624;28;20068;-69
2021/04/11 00:35:27;;;;;;;14.17;6.17;;;5.50;77.70;;;;;;5032466;28;20064;-69
2021/04/11 00:37:53;;;;;;;14.50;6.00;;;5.50;78.00;;;;;;5031709;28;20429;-68
2021/04/11 00:40:28;;;;;;;15.43;6.10;;;5.50;78.30;;;;;;5032121;28;20067;-69
2021/04/11 00:43:24;;;;;;;13.23;6.20;;;5.50;78.60;;;;;;5032000;28;20033;-69
2021/04/11 00:45:59;;;;;;;15.77;7.97;;;5.50;79.10;;;;;;5022943;28;20068;-67
2021/04/11 00:48:27;;;;;;;16.53;7.90;;;5.60;79.30;;;;;;5032201;28;20339;-68
2021/04/11 00:51:01;;;;;;;18.27;6.80;;;5.60;79.70;;;;;;5029758;28;20033;-69
2021/04/11 00:53:27;;;;;;;20.27;8.73;;;5.60;79.90;;;;;;5032180;28;20041;-68
2021/04/11 00:55:53;;;;;;;18.23;8.83;;;5.60;80.30;;;;;;5031584;28;20379;-69
2021/04/11 00:58:22;;;;;;;19.53;8.50;;;5.60;80.60;;;;;;5030566;28;20029;-67
2021/04/11 01:00:48;;;;;;;21.80;9.40;;;5.60;80.90;;;;;;5029559;28;20040;-69
2021/04/11 01:03:21;;;;;;;21.07;9.80;;;5.60;81.20;;;;;;5030480;28;20041;-69
2021/04/11 01:05:47;;;;;;;18.07;9.03;;;5.60;81.40;;;;;;5031827;28;20029;-67
2021/04/11 01:08:21;;;;;;;22.17;9.93;;;5.70;81.80;;;;;;5031215;28;20037;-67
2021/04/11 01:11:10;;;;;;;23.03;10.63;;;5.70;81.90;;;;;;5029944;28;20042;-69
2021/04/11 01:13:43;;;;;;;23.20;11.38;;;5.70;82.20;;;;;;5031513;28;20037;-68
2021/04/11 01:16:12;;;;;;;25.27;11.47;;;5.70;82.50;;;;;;5030340;28;20497;-68
2021/04/11 01:18:39;;;;;;;25.07;12.50;;;5.70;82.80;;;;;;5030569;28;20513;-69
2021/04/11 01:21:20;;;;;;;23.43;12.20;;;5.70;83.00;;;;;;5030626;28;20083;-68
2021/04/11 01:24:09;;;;;;;27.17;13.23;;;5.80;83.40;;;;;;5029727;28;20037;-69
2021/04/11 01:26:38;;;;;;;;;;;5.80;83.60;;;;;;5021311;28;20044;-68
2021/04/11 01:29:05;;;;;;;26.60;13.17;;;5.80;83.80;;;;;;5031319;28;19909;-68
2021/04/11 01:31:33;;;;;;;27.77;14.30;;;5.80;83.90;;;;;;5029326;28;20046;-68
2021/04/11 01:34:00;;;;;;;21.00;9.37;;;5.90;84.20;;;;;;5029563;28;20392;-68
2021/04/11 01:36:29;;;;;;;30.73;15.83;;;5.90;84.40;;;;;;5031413;28;20044;-68
2021/04/11 01:38:59;;;;;;;30.37;15.33;;;5.90;84.50;;;;;;5029628;28;20049;-68
2021/04/11 01:41:35;;;;;;;28.50;14.70;;;5.90;84.90;;;;;;5030686;28;20505;-69
2021/04/11 01:44:02;;;;;;;31.17;15.97;;;5.90;85.10;;;;;;5029423;28;20036;-68
2021/04/11 01:46:29;;;;;;;34.23;17.20;;;6.00;85.50;;;;;;5029923;28;20029;-68
2021/04/11 01:48:55;;;;;;;32.30;15.57;;;6.00;85.70;;;;;;5031131;28;20513;-68
2021/04/11 01:51:25;;;;;;;30.50;15.77;;;6.00;85.90;;;;;;5028968;28;20025;-68
2021/04/11 01:53:51;;;;;;;35.60;17.77;;;6.00;86.20;;;;;;5031154;28;20045;-68
2021/04/11 01:56:18;;;;;;;34.63;17.43;;;6.10;86.30;;;;;;5029362;28;20830;-68
2021/04/11 01:58:48;;;;;;;31.03;16.83;;;6.10;86.50;;;;;;5029705;28;20033;-68
2021/04/11 02:01:28;;;;;;;32.70;17.30;;;6.10;86.80;;;;;;5030026;28;20448;-68
2021/04/11 02:03:59;;;;;;;35.10;18.57;;;6.10;87.00;;;;;;5029795;28;20052;-68
2021/04/11 02:06:27;;;;;;;34.10;17.67;;;6.10;87.10;;;;;;5029129;28;20502;-65
2021/04/11 02:09:01;;;;;;;36.08;18.00;;;6.20;87.30;;;;;;5029596;28;20030;-68
2021/04/11 02:11:32;;;;;;;34.63;18.60;;;6.20;87.50;;;;;;5028352;28;20034;-68
2021/04/11 02:13:59;;;;;;;35.37;18.57;;;6.30;87.70;;;;;;5030786;28;20486;-69
2021/04/11 02:16:31;;;;;;;35.00;19.03;;;6.30;87.80;;;;;;5029395;28;20410;-68
2021/04/11 02:19:15;;;;;;;27.27;12.27;;;6.30;87.80;;;;;;5029123;28;20397;-68
2021/04/11 02:21:47;;;;;;;32.37;17.23;;;6.40;87.90;;;;;;5029751;28;20099;-68
2021/04/11 02:24:14;;;;;;;36.17;18.70;;;6.40;88.00;;;;;;5029327;28;20053;-68
2021/04/11 02:26:41;;;;;;;34.93;18.03;;;6.40;88.10;;;;;;5029373;28;20115;-68
2021/04/11 02:29:13;;;;;;;32.27;17.97;;;6.40;88.30;;;;;;5028953;28;20030;-68
2021/04/11 02:31:39;;;;;;;32.40;18.60;;;6.40;88.40;;;;;;5031531;28;20375;-68
2021/04/11 02:34:19;;;;;;;34.23;19.87;;;6.40;88.60;;;;;;5032623;28;20091;-68
2021/04/11 02:36:51;;;;;;;35.90;18.40;;;6.50;88.90;;;;;;5016811;28;20076;-68
2021/04/11 02:39:24;;;;;;;32.23;18.67;;;6.50;89.10;;;;;;5034280;28;20528;-68
2021/04/11 02:41:52;;;;;;;32.17;17.83;;;6.40;89.30;;;;;;5032535;28;20044;-68
2021/04/11 02:44:21;;;;;;;36.77;19.20;;;6.50;89.60;;;;;;5032708;28;20033;-68
2021/04/11 02:46:49;;;;;;;40.37;20.17;;;6.50;89.90;;;;;;5033492;28;20303;-64
2021/04/11 02:49:19;;;;;;;31.60;18.13;;;6.50;90.00;;;;;;5034003;28;20041;-63
2021/04/11 02:51:45;;;;;;;30.90;16.77;;;6.60;90.10;;;;;;5033796;28;20037;-63
2021/04/11 02:54:20;;;;;;;35.55;18.95;;;6.60;90.10;;;;;;5033822;28;20038;-63
2021/04/11 02:56:47;;;;;;;33.67;19.00;;;6.60;90.20;;;;;;5034256;28;20485;-63
2021/04/11 02:59:19;;;;;;;33.50;18.80;;;6.60;90.20;;;;;;5032828;28;20038;-63
2021/04/11 03:01:52;;;;;;;33.30;17.50;;;6.60;90.40;;;;;;5032072;28;20103;-63
2021/04/11 03:04:23;;;;;;;34.37;18.17;;;6.60;90.40;;;;;;5032747;28;20121;-63
2021/04/11 03:06:56;;;;;;;34.10;17.30;;;6.70;90.50;;;;;;5032172;28;20053;-63
2021/04/11 03:09:30;;;;;;;33.77;19.00;;;6.70;90.50;;;;;;5032691;28;20033;-63
2021/04/11 03:11:57;;;;;;;33.50;18.87;;;6.70;90.60;;;;;;5031507;28;20405;-64
2021/04/11 03:14:33;;;;;;;37.13;20.27;;;6.70;90.70;;;;;;5032483;28;20452;-63
2021/04/11 03:17:03;;;;;;;34.33;19.27;;;6.70;90.70;;;;;;5032036;28;20160;-63
2021/04/11 03:19:32;;;;;;;;;;;6.70;90.90;;;;;;5033122;28;20519;-67
2021/04/11 03:21:58;;;;;;;32.53;18.07;;;6.70;90.90;;;;;;5031368;28;19909;-63
2021/04/11 03:24:24;;;;;;;39.53;20.67;;;6.70;91.20;;;;;;5032192;28;20454;-63
2021/04/11 03:27:04;;;;;;;37.27;21.97;;;6.70;91.00;;;;;;5032192;28;20061;-63
2021/04/11 03:29:42;;;;;;;38.67;21.67;;;6.70;91.10;;;;;;5032082;28;20038;-64
2021/04/11 03:32:20;;;;;;;38.27;20.17;;;6.80;91.20;;;;;;5031289;28;20044;-64
2021/04/11 03:34:52;;;;;;;39.63;22.47;;;6.80;91.20;;;;;;5032060;28;20091;-63
2021/04/11 03:37:19;;;;;;;36.73;21.20;;;6.80;91.20;;;;;;5033135;28;20381;-63
2021/04/11 03:39:46;;;;;;;40.50;23.23;;;6.80;91.30;;;;;;5033473;28;20479;-63
2021/04/11 03:42:19;;;;;;;40.17;22.80;;;6.80;91.40;;;;;;5030996;28;20030;-63
2021/04/11 03:44:48;;;;;;;39.70;21.70;;;6.80;91.40;;;;;;5031565;28;20064;-65
2021/04/11 03:47:34;;;;;;;38.43;22.53;;;6.90;91.40;;;;;;5033241;28;20449;-63
2021/04/11 03:50:14;;;;;;;38.60;22.17;;;6.90;91.40;;;;;;5031654;28;20040;-64
2021/04/11 03:53:08;;;;;;;39.17;22.85;;;6.90;91.40;;;;;;5031686;28;20057;-63
2021/04/11 03:55:40;;;;;;;38.53;22.53;;;6.90;91.50;;;;;;5032170;28;20440;-63
2021/04/11 03:58:19;;;;;;;33.60;18.37;;;6.90;91.60;;;;;;5031787;28;20441;-64
2021/04/11 04:00:53;;;;;;;39.20;23.30;;;6.90;91.60;;;;;;5031115;28;20040;-63
2021/04/11 04:03:25;;;;;;;41.27;24.13;;;6.90;91.60;;;;;;5032911;28;20044;-63
2021/04/11 04:05:52;;;;;;;42.80;24.60;;;6.90;91.70;;;;;;5033180;28;20120;-63
2021/04/11 04:08:18;;;;;;;47.50;25.93;;;7.00;91.80;;;;;;5032297;28;20096;-63
2021/04/11 04:11:09;;;;;;;45.63;24.67;;;7.00;91.80;;;;;;5031095;28;20393;-62
2021/04/11 04:13:47;;;;;;;43.67;25.77;;;7.00;91.80;;;;;;5031390;28;20042;-63
2021/04/11 04:17:00;;;;;;;42.72;24.30;;;7.00;91.80;;;;;;5031144;28;20078;-63
2021/04/11 04:19:45;;;;;;;43.33;25.42;;;7.10;91.80;;;;;;4984607;28;20180;-63
2021/04/11 04:22:38;;;;;;;46.63;26.37;;;7.00;91.80;;;;;;5030647;28;20034;-63
2021/04/11 04:25:24;;;;;;;43.33;26.07;;;7.10;91.90;;;;;;5030744;28;20040;-63
2021/04/11 04:27:59;;;;;;;43.20;23.98;;;7.10;91.90;;;;;;5030753;28;20445;-63
2021/04/11 04:30:40;;;;;;;45.07;26.93;;;7.10;92.00;;;;;;5030786;28;20033;-63
2021/04/11 04:33:39;;;;;;;47.70;27.40;;;7.10;92.00;;;;;;5032172;28;20049;-63
2021/04/11 04:36:36;;;;;;;38.47;21.73;;;7.10;92.00;;;;;;5032069;28;20448;-63
2021/04/11 04:39:31;;;;;;;46.13;27.53;;;7.10;92.10;;;;;;5027640;28;20040;-63
2021/04/11 04:42:36;;;;;;;37.80;22.47;;;7.20;92.20;;;;;;5029881;28;20041;-63
2021/04/11 04:45:12;;;;;;;41.63;25.43;;;7.20;92.10;;;;;;5030476;28;20033;-63
2021/04/11 04:47:59;;;;;;;39.80;24.80;;;7.20;92.20;;;;;;5030515;28;20036;-63
2021/04/11 04:50:38;;;;;;;46.43;27.43;;;7.20;92.20;;;;;;4998439;28;20056;-63
2021/04/11 04:53:36;;;;;;;48.10;28.50;;;7.20;92.30;;;;;;5031860;28;20030;-63
2021/04/11 04:56:13;;;;;;;46.37;28.20;;;7.20;92.40;;;;;;5030180;28;20428;-64
2021/04/11 04:58:43;;;;;;;47.63;28.87;;;7.30;92.40;;;;;;5030530;28;20516;-63
2021/04/11 05:01:25;;;;;;;48.85;29.88;;;7.30;92.40;;;;;;5030863;28;20034;-63
2021/04/11 05:04:09;;;;;;;45.73;26.83;;;7.30;92.40;;;;;;5030090;28;20033;-63
2021/04/11 05:06:51;;;;;;;45.90;28.03;;;7.30;92.40;;;;;;5030425;28;20120;-63
2021/04/11 05:10:14;;;;;;;50.33;29.07;;;7.30;92.40;;;;;;5024009;28;20060;-63
2021/04/11 05:12:51;;;;;;;47.60;28.80;;;7.30;92.50;;;;;;5029590;28;20047;-64
2021/04/11 05:15:23;;;;;;;47.67;29.47;;;7.40;92.60;;;;;;5030458;28;20046;-63
2021/04/11 05:18:06;;;;;;;50.17;28.87;;;7.40;92.70;;;;;;5031222;28;20095;-63
2021/04/11 05:20:40;;;;;;;50.10;30.60;;;7.40;92.60;;;;;;5029961;28;20041;-63
2021/04/11 05:23:36;;;;;;;43.88;27.55;;;7.50;92.60;;;;;;5029984;28;20127;-63
2021/04/11 05:26:16;;;;;;;47.37;29.30;;;7.40;92.60;;;;;;5029627;28;20535;-63
2021/04/11 05:29:03;;;;;;;50.23;29.63;;;7.50;92.90;;;;;;5013736;28;20509;-63
2021/04/11 05:31:33;;;;;;;48.93;30.43;;;7.50;92.60;;;;;;5030167;28;20032;-63
2021/04/11 05:34:01;;;;;;;49.90;31.67;;;7.60;92.70;;;;;;5031271;28;20041;-63
2021/04/11 05:36:51;;;;;;;50.90;32.00;;;7.60;92.70;;;;;;5030806;28;20276;-63
2021/04/11 05:39:46;;;;;;;46.42;29.60;;;7.60;92.80;;;;;;5031371;28;20042;-63
2021/04/11 05:42:36;;;;;;;44.60;28.33;;;7.60;92.70;;;;;;5030056;28;20056;-63
2021/04/11 05:45:20;;;;;;;46.78;30.67;;;7.60;92.70;;;;;;5030770;28;20477;-64
2021/04/11 05:48:13;;;;;;;45.00;28.03;;;7.70;92.80;;;;;;5030875;28;20069;-63
2021/04/11 05:51:05;;;;;;;48.33;31.00;;;7.70;92.80;;;;;;5030306;28;20034;-63
2021/04/11 05:53:37;;;;;;;49.77;32.17;;;7.70;92.80;;;;;;5022633;28;20048;-63
2021/04/11 05:56:07;;;;;;;52.37;33.03;;;7.70;92.80;;;;;;5030973;28;20461;-63
2021/04/11 05:58:57;;;;;;;50.05;32.78;;;7.80;92.80;;;;;;5030717;28;20034;-63
2021/04/11 06:01:34;;;;;;;50.60;32.03;;;7.80;92.90;;;;;;5030634;28;20041;-63
2021/04/11 06:04:09;;;;;;;51.47;32.23;;;7.80;92.90;;;;;;5030661;28;20042;-63
2021/04/11 06:07:08;;;;;;;55.33;34.93;;;7.80;92.90;;;;;;5029513;28;20037;-66
2021/04/11 06:09:45;;;;;;;52.53;33.63;;;7.90;92.90;;;;;;5029050;28;20461;-63
2021/04/11 06:12:25;;;;;;;52.53;34.13;;;7.90;93.00;;;;;;5030184;28;20041;-63
2021/04/11 06:15:02;;;;;;;50.55;32.15;;;8.00;93.00;;;;;;5030552;28;20045;-63
2021/04/11 06:17:29;;;;;;;51.07;31.30;;;8.00;93.00;;;;;;5030819;28;20045;-63
2021/04/11 06:19:55;;;;;;;49.77;32.33;;;8.00;92.90;;;;;;5030155;28;20033;-63
2021/04/11 06:22:29;;;;;;;52.60;33.77;;;8.10;92.90;;;;;;5030434;28;20370;-63
2021/04/11 06:25:25;;;;;;;51.00;33.73;;;8.10;92.80;;;;;;5030457;28;20038;-63
2021/04/11 06:28:16;;;;;;;50.00;32.47;;;8.10;92.80;;;;;;5030230;28;20045;-63
2021/04/11 06:30:50;;;;;;;51.03;32.87;;;8.10;92.90;;;;;;5030046;28;20061;-63
2021/04/11 06:33:26;;;;;;;54.40;34.97;;;8.10;93.00;;;;;;5029230;28;20041;-63
2021/04/11 06:36:02;;;;;;;51.57;34.43;;;8.20;93.00;;;;;;5030624;28;20037;-63
2021/04/11 06:38:38;;;;;;;48.37;31.97;;;8.20;92.90;;;;;;5030497;28;20038;-63
2021/04/11 06:41:34;;;;;;;50.40;32.63;;;8.20;93.00;;;;;;5029928;28;20617;-63
2021/04/11 06:44:12;;;;;;;50.83;33.43;;;8.20;93.10;;;;;;5028714;28;20112;-64
2021/04/11 06:46:52;;;;;;;54.00;33.83;;;8.20;93.00;;;;;;5029375;28;20083;-63
2021/04/11 06:49:30;;;;;;;46.33;30.00;;;8.30;93.10;;;;;;5028992;28;20547;-63
2021/04/11 06:52:19;;;;;;;46.73;32.67;;;8.40;93.00;;;;;;5029539;28;20029;-63
2021/04/11 06:55:07;;;;;;;48.30;33.13;;;8.40;93.00;;;;;;5029391;28;20041;-63
2021/04/11 06:57:55;;;;;;;51.23;34.03;;;8.40;92.90;;;;;;5030152;28;20037;-63
2021/04/11 07:00:42;;;;;;;50.63;33.03;;;8.40;93.00;;;;;;5029786;28;20065;-63
2021/04/11 07:03:37;;;;;;;47.60;32.33;;;8.40;93.00;;;;;;5030462;28;20034;-63
2021/04/11 07:06:15;;;;;;;45.97;30.83;;;8.40;93.00;;;;;;5030391;28;20045;-63
2021/04/11 07:08:59;;;;;;;44.43;29.97;;;8.50;93.30;;;;;;5012572;28;20034;-63
2021/04/11 07:11:47;;;;;;;45.07;29.83;;;8.50;93.10;;;;;;5029353;28;20091;-63
2021/04/11 07:14:27;;;;;;;47.03;33.03;;;8.50;93.10;;;;;;5029853;28;20038;-63
2021/04/11 07:17:25;;;;;;;45.85;31.17;;;8.50;93.10;;;;;;5028788;28;20037;-63
2021/04/11 07:19:51;;;;;;;44.43;29.97;;;8.60;93.10;;;;;;5032718;28;20109;-63
2021/04/11 07:22:48;;;;;;;41.80;29.10;;;8.60;93.20;;;;;;5033394;28;20518;-63
2021/04/11 07:25:23;;;;;;;41.83;29.47;;;8.70;93.40;;;;;;5033024;28;20041;-63
2021/04/11 07:28:07;;;;;;;38.67;27.83;;;8.80;93.50;;;;;;5033695;28;20121;-63
2021/04/11 07:30:45;;;;;;;36.90;26.00;;;8.90;93.40;;;;;;5033093;28;20075;-63
2021/04/11 07:33:29;;;;;;;38.97;28.80;;;9.00;93.40;;;;;;5032985;28;20038;-63
2021/04/11 07:36:24;;;;;;;38.70;28.57;;;9.10;93.30;;;;;;5033582;28;20103;-63
2021/04/11 07:39:15;;;;;;;42.30;28.97;;;9.20;93.10;;;;;;5033312;28;20449;-64
2021/04/11 07:42:06;;;;;;;40.92;29.48;;;9.20;93.10;;;;;;5032288;28;20037;-64
2021/04/11 07:45:03;;;;;;;41.42;30.10;;;9.20;93.10;;;;;;5032147;28;20463;-63
2021/04/11 07:47:41;;;;;;;39.23;29.30;;;9.20;93.10;;;;;;5004125;28;20034;-63
2021/04/11 07:50:29;;;;;;;41.00;28.27;;;9.30;93.30;;;;;;5033031;28;20125;-63
2021/04/11 07:53:20;;;;;;;41.33;30.63;;;9.40;93.20;;;;;;5032731;28;20034;-63
2021/04/11 07:56:03;;;;;;;43.17;30.67;;;9.40;93.00;;;;;;5031585;28;20140;-64
2021/04/11 07:59:06;;;;;;;41.63;30.30;;;9.30;92.80;;;;;;5033158;28;20068;-64
2021/04/11 08:01:43;;;;;;;41.57;30.23;;;9.40;93.00;;;;;;5031622;28;20049;-63
2021/04/11 08:04:23;;;;;;;46.20;32.30;;;9.40;93.00;;;;;;5033026;28;20030;-63
2021/04/11 08:07:04;;;;;;;65.53;42.90;;;9.50;93.10;;;;;;5032787;28;20038;-63
2021/04/11 08:09:49;;;;;;;46.22;34.67;;;9.50;93.10;;;;;;5032537;28;20269;-63
2021/04/11 08:12:46;;;;;;;39.53;29.87;;;9.60;93.10;;;;;;5032461;28;20494;-63
2021/04/11 08:15:30;;;;;;;47.35;33.10;;;9.70;93.30;;;;;;5032417;28;20041;-63
2021/04/11 08:18:10;;;;;;;45.37;32.90;;;9.70;92.90;;;;;;5032217;28;20041;-63
2021/04/11 08:21:17;;;;;;;43.92;32.50;;;9.90;93.10;;;;;;5032407;28;20071;-63
2021/04/11 08:24:11;;;;;;;37.53;28.33;;;10.00;93.10;;;;;;5032323;28;20544;-63
2021/04/11 08:27:11;;;;;;;42.72;31.23;;;10.20;93.00;;;;;;5031976;28;20041;-63
2021/04/11 08:30:14;;;;;;;37.78;28.90;;;10.30;93.10;;;;;;5032123;28;20425;-63
2021/04/11 08:33:11;;;;;;;35.67;27.25;;;10.60;93.40;;;;;;5031682;28;20053;-64
2021/04/11 08:36:00;;;;;;;36.60;28.75;;;10.90;93.40;;;;;;5031980;28;20145;-63
2021/04/11 08:39:04;;;;;;;34.65;27.27;;;11.20;92.80;;;;;;5032494;28;20041;-63
2021/04/11 08:41:32;;;;;;;34.45;27.00;;;11.40;92.50;;;;;;5029905;28;20041;-65
2021/04/11 08:44:14;;;;;;;35.25;27.75;;;11.50;92.50;;;;;;5032462;28;20399;-65
2021/04/11 08:49:23;;;;;;;37.00;29.02;;;11.90;92.30;;;;;;4928623;28;20046;-62
2021/04/11 08:52:01;;;;;;;32.08;25.08;;;12.00;92.00;;;;;;4930715;28;20032;-63
2021/04/11 08:54:45;;;;;;;32.58;24.15;;;12.00;91.80;;;;;;4930395;28;20035;-63
2021/04/11 08:57:45;;;;;;;32.30;25.00;;;12.00;91.70;;;;;;4928692;28;20048;-63
2021/04/11 09:01:06;;;;;;;29.70;23.20;;;11.90;91.30;;;;;;4931020;28;20109;-62
2021/04/11 09:04:00;;;;;;;;;;;11.90;91.70;;;;;;4939491;28;20175;-62
2021/04/11 09:06:29;;;;;;;24.27;19.08;;;12.80;93.20;;;;;;4943824;28;19918;-60
2021/04/11 09:09:19;;;;;;;22.35;17.98;;;14.20;92.60;;;;;;4930426;28;20054;-60
2021/04/11 09:11:54;;;;;;;;;;;15.40;91.70;;;;;;4931017;28;20040;-60
2021/04/11 09:14:47;;;;;;;20.33;17.55;;;16.00;91.00;;;;;;4931443;28;19950;-60
2021/04/11 09:17:22;;;;;;;22.88;17.83;;;15.90;88.70;;;;;;4945470;28;20071;-60
2021/04/11 09:20:12;;;;;;;23.95;19.17;;;15.90;87.60;;;;;;4931159;28;20074;-60
2021/04/11 09:22:46;;;;;;;21.65;17.83;;;16.00;86.50;;;;;;4930679;28;20407;-60
2021/04/11 09:25:19;;;;;;;19.92;16.60;;;15.90;84.50;;;;;;4930882;28;20619;-60
2021/04/11 09:27:51;;;;;;;21.15;17.60;;;15.30;81.60;;;;;;4930909;28;20412;-60
2021/04/11 09:30:44;;;;;;;22.45;16.77;;;14.90;82.60;;;;;;4930919;28;20447;-60
2021/04/11 09:33:24;;;;;;;23.98;18.17;;;14.40;82.00;;;;;;4945529;28;20512;-60
2021/04/11 09:35:58;;;;;;;;;;;13.80;81.70;;;;;;4931747;28;20039;-60
2021/04/11 09:38:32;;;;;;;21.48;16.40;;;13.30;82.40;;;;;;4930957;28;20001;-60
2021/04/11 09:41:22;;;;;;;20.85;16.70;;;12.90;82.90;;;;;;4928527;28;20102;-62
2021/04/11 09:44:00;;;;;;;22.38;16.73;;;12.60;84.30;;;;;;4931142;28;20074;-63
2021/04/11 09:46:47;;;;;;;21.75;17.08;;;12.50;86.10;;;;;;4929633;28;20046;-63
2021/04/11 09:49:37;;;;;;;17.92;14.05;;;12.70;86.90;;;;;;4930608;28;20507;-60
2021/04/11 09:52:08;;;;;;;18.15;13.48;;;13.20;87.80;;;;;;4930559;28;20038;-60
2021/04/11 09:54:44;;;;;;;15.13;11.00;;;13.50;86.00;;;;;;4930612;28;20039;-59
2021/04/11 09:57:19;;;;;;;16.27;11.93;;;13.50;84.20;;;;;;4930775;28;20123;-60
2021/04/11 10:00:23;;;;;;;13.07;10.00;;;13.30;83.40;;;;;;4930416;28;20170;-63
2021/04/11 10:03:15;;;;;;;12.48;8.90;;;13.00;83.30;;;;;;4944995;28;20043;-60
2021/04/11 10:05:50;;;;;;;11.90;8.00;;;12.70;83.10;;;;;;4930356;28;20044;-62
2021/04/11 10:08:44;;;;;;;11.05;8.30;;;12.50;83.40;;;;;;4930659;28;20094;-62
2021/04/11 10:11:31;;;;;;;12.18;8.80;;;12.30;84.30;;;;;;4930095;28;20044;-63
2021/04/11 10:14:00;;;;;;;10.80;8.07;;;12.20;84.50;;;;;;4945004;28;20044;-63
2021/04/11 10:16:44;;;;;;;12.57;8.18;;;12.00;84.40;;;;;;4930413;28;20126;-62
2021/04/11 10:19:25;;;;;;;11.45;8.15;;;11.90;84.60;;;;;;4944332;28;20127;-62
2021/04/11 10:22:00;;;;;;;;;;;11.90;85.10;;;;;;4930391;28;20028;-62
2021/04/11 10:24:46;;;;;;;12.77;8.75;;;11.90;85.80;;;;;;4930377;28;20481;-63
2021/04/11 10:27:16;;;;;;;13.68;10.00;;;12.00;86.30;;;;;;4929954;28;20480;-63
2021/04/11 10:29:44;;;;;;;14.15;10.90;;;12.10;86.00;;;;;;4930555;28;20040;-62
2021/04/11 10:32:36;;;;;;;14.15;11.13;;;12.20;84.70;;;;;;4944693;28;20408;-62
2021/04/11 10:35:18;;;;;;;13.27;10.40;;;12.20;85.90;;;;;;4930623;28;20047;-62
2021/04/11 10:38:04;;;;;;;11.98;9.05;;;12.60;86.70;;;;;;4930324;28;20036;-60
2021/04/11 10:40:44;;;;;;;11.18;9.25;;;13.00;85.50;;;;;;4929977;28;20087;-60
2021/04/11 10:43:46;;;;;;;12.85;9.43;;;13.20;83.40;;;;;;4930033;28;20043;-60
2021/04/11 10:46:30;;;;;;;10.70;8.38;;;13.20;83.50;;;;;;4929890;28;20028;-61
2021/04/11 10:49:28;;;;;;;10.95;8.25;;;13.30;83.00;;;;;;4928940;29;20090;-60
2021/04/11 10:52:05;;;;;;;10.23;6.97;;;13.40;82.60;;;;;;4929411;28;20544;-60
2021/04/11 10:54:43;;;;;;;8.57;6.65;;;13.40;81.20;;;;;;4933003;28;20120;-60
2021/04/11 10:57:44;;;;;;;8.57;6.10;;;13.20;79.90;;;;;;4933647;28;20427;-61
2021/04/11 11:00:14;;;;;;;;;;;12.90;80.40;;;;;;4933325;28;20047;-60
2021/04/11 11:03:17;;;;;;;7.30;5.03;;;12.70;79.20;;;;;;4933249;28;19919;-61
2021/04/11 11:06:16;;;;;;;7.60;5.65;;;12.30;78.60;;;;;;4933040;28;20495;-63
2021/04/11 11:09:03;;;;;;;7.85;5.70;;;11.80;79.10;;;;;;4933246;28;20499;-63
2021/04/11 11:11:47;;;;;;;8.75;6.50;;;11.60;80.10;;;;;;4932665;28;20043;-63
2021/04/11 11:14:39;;;;;;;8.50;6.15;;;11.60;80.70;;;;;;4933325;28;20044;-62
2021/04/11 11:17:33;;;;;;;8.88;6.63;;;11.50;80.50;;;;;;4965487;28;20047;-62
2021/04/11 11:20:07;;;;;;;9.80;7.38;;;11.50;81.20;;;;;;4947171;29;20118;-61
2021/04/11 11:22:39;;;;;;;11.05;8.18;;;11.50;80.30;;;;;;4931805;29;20048;-62
2021/04/11 11:25:19;;;;;;;11.45;8.90;;;11.40;80.20;;;;;;4932745;29;20054;-63
2021/04/11 11:27:54;;;;;;;11.65;8.95;;;11.30;79.60;;;;;;4932693;29;20047;-63
2021/04/11 11:30:33;;;;;;;12.82;8.93;;;11.20;79.70;;;;;;4931981;28;20032;-62
2021/04/11 11:33:07;;;;;;;11.77;9.15;;;11.10;80.30;;;;;;4932774;28;20046;-62
2021/04/11 11:35:48;;;;;;;13.32;9.60;;;11.00;79.70;;;;;;4932557;28;20042;-63
2021/04/11 11:38:24;;;;;;;13.38;9.63;;;10.90;79.60;;;;;;4932257;28;20191;-63
2021/04/11 11:41:09;;;;;;;11.82;8.95;;;10.80;79.80;;;;;;4931889;28;20395;-63
2021/04/11 11:43:35;;;;;;;11.38;8.45;;;10.70;79.80;;;;;;4930827;28;20492;-63
2021/04/11 11:46:38;;;;;;;12.18;8.48;;;10.60;79.50;;;;;;4946472;28;20040;-63
2021/04/11 11:49:10;;;;;;;12.25;8.68;;;10.40;79.60;;;;;;4932550;28;20403;-64
2021/04/11 11:51:44;;;;;;;11.70;8.23;;;10.40;79.90;;;;;;4932263;28;20117;-63
2021/04/11 11:54:15;;;;;;;11.13;8.07;;;10.30;79.70;;;;;;4932320;28;20499;-63
2021/04/11 11:56:48;;;;;;;11.07;7.40;;;10.30;80.40;;;;;;4932993;28;20051;-63
2021/04/11 11:59:30;;;;;;;10.15;7.25;;;10.40;80.70;;;;;;4946966;28;20505;-63
2021/04/11 12:02:18;;;;;;;10.30;7.05;;;10.50;80.00;;;;;;4931545;28;20038;-63
2021/04/11 12:05:29;;;;;;;9.95;6.40;;;10.40;79.30;;;;;;4961273;28;20050;-62
2021/04/11 12:08:32;;;;;;;10.30;6.07;;;10.20;78.40;;;;;;4990433;28;20042;-63
2021/04/11 12:11:03;;;;;;;8.60;5.68;;;10.00;78.70;;;;;;4973822;28;20062;-64
2021/04/11 12:13:29;;;;;;;8.70;5.90;;;9.90;78.90;;;;;;4946770;28;20055;-63
2021/04/11 12:16:20;;;;;;;8.65;5.80;;;9.70;78.90;;;;;;4932135;28;20194;-64
2021/04/11 12:19:27;;;;;;;7.68;5.07;;;9.60;79.30;;;;;;4946648;29;20559;-63
2021/04/11 12:22:31;;;;;;;8.80;5.27;;;9.40;79.00;;;;;;4970741;28;20513;-64
2021/04/11 12:25:11;;;;;;;8.65;4.72;;;9.20;79.80;;;;;;4932638;29;20062;-64
2021/04/11 12:27:39;;;;;;;9.07;4.75;;;9.20;80.20;;;;;;4932110;29;20031;-63
2021/04/11 12:30:09;;;;;;;8.03;4.93;;;9.20;80.10;;;;;;4932140;29;20472;-63
2021/04/11 12:32:40;;;;;;;8.88;4.93;;;9.10;79.60;;;;;;4946156;29;20105;-63
2021/04/11 12:35:28;;;;;;;8.80;4.87;;;9.10;80.00;;;;;;4931366;29;20035;-63
2021/04/11 12:38:18;;;;;;;7.50;4.13;;;9.10;79.80;;;;;;4927618;28;20104;-63
2021/04/11 12:40:57;;;;;;;7.93;4.93;;;9.10;79.80;;;;;;4928523;29;20056;-63
2021/04/11 12:43:34;;;;;;;8.60;4.90;;;9.00;79.70;;;;;;4928763;28;20051;-62
2021/04/11 12:46:03;;;;;;;7.47;4.23;;;9.00;80.20;;;;;;4929922;29;20078;-62
2021/04/11 12:49:02;;;;;;;8.93;4.80;;;8.90;80.00;;;;;;4931065;28;20139;-62
2021/04/11 12:51:49;;;;;;;6.80;4.00;;;8.90;80.10;;;;;;4930810;28;20075;-63
2021/04/11 12:54:37;;;;;;;7.93;3.97;;;8.80;79.00;;;;;;4931439;29;20044;-62
2021/04/11 12:57:08;;;;;;;7.97;3.90;;;8.50;79.00;;;;;;4930219;28;20051;-62
2021/04/11 12:59:41;;;;;;;7.03;3.80;;;8.40;80.30;;;;;;4925602;28;20123;-62
2021/04/11 13:02:15;;;;;;;6.47;3.60;;;8.40;80.20;;;;;;4927929;28;20438;-63
2021/04/11 13:04:48;;;;;;;6.07;3.43;;;8.40;80.20;;;;;;4931023;28;20054;-65
2021/04/11 13:07:26;;;;;;;6.80;3.40;;;8.40;80.40;;;;;;4933358;28;20046;-62
2021/04/11 13:10:15;;;;;;;6.13;3.30;;;8.50;81.20;;;;;;4932121;28;20043;-65
2021/04/11 13:13:16;;;;;;;5.83;2.90;;;8.60;80.80;;;;;;4919036;28;20463;-62
2021/04/11 13:15:57;;;;;;;;;;;8.60;80.20;;;;;;4930197;29;20048;-62
2021/04/11 13:18:42;;;;;;;6.55;3.45;;;8.60;79.40;;;;;;4930496;29;19919;-62
2021/04/11 13:21:32;;;;;;;6.57;2.77;;;8.40;78.90;;;;;;4929792;29;20040;-62
2021/04/11 13:24:13;;;;;;;7.53;3.73;;;8.30;79.20;;;;;;4931588;29;20492;-61
2021/04/11 13:26:43;;;;;;;8.27;4.20;;;8.20;79.00;;;;;;4931910;29;20032;-62
2021/04/11 13:29:24;;;;;;;8.15;4.47;;;8.10;78.90;;;;;;4931265;29;20043;-62
2021/04/11 13:31:50;;;;;;;8.95;4.90;;;8.00;79.30;;;;;;4930943;29;20094;-62
2021/04/11 13:34:22;;;;;;;7.60;5.10;;;7.90;79.70;;;;;;4930963;29;20086;-62
2021/04/11 13:36:49;;;;;;;7.77;5.13;;;7.90;79.50;;;;;;4931532;29;20426;-62
2021/04/11 13:39:35;;;;;;;7.10;4.40;;;7.80;79.70;;;;;;4930327;29;20040;-62
2021/04/11 13:42:38;;;;;;;7.47;3.77;;;7.80;79.60;;;;;;4929054;29;20443;-62
2021/04/11 13:45:27;;;;;;;6.77;3.50;;;7.70;80.00;;;;;;4929095;29;20063;-61
2021/04/11 13:48:23;;;;;;;5.33;2.80;;;7.70;79.90;;;;;;4929689;29;20032;-61
2021/04/11 13:51:19;;;;;;;3.80;2.10;;;7.70;79.60;;;;;;4930590;29;20032;-61